Time;durP1;ratioP1;P1;durP2;ratioP2;P2;SDS_P1;SDS_P2;PMS_P1;PMS_P2;Temp;Humidity;BMP_temperature;BMP_pressure;BME280_temperature;BME280_humidity;BME280_pressure;Samples;Min_cycle;Max_cycle;Signal;HPM_P1;HPM_P2
2023/09/13 00:02:15;;;;;;;9.80;5.85;;;21.10;99.90;;;;;;4930049;29;21987;-76
2023/09/13 00:04:41;;;;;;;14.93;5.70;;;21.10;99.90;;;;;;4933684;29;20024;-76
2023/09/13 00:07:06;;;;;;;8.02;5.72;;;21.10;99.90;;;;;;4932080;29;20046;-76
2023/09/13 00:09:32;;;;;;;8.93;6.03;;;21.10;99.90;;;;;;4935448;29;20024;-76
2023/09/13 00:11:58;;;;;;;9.70;5.10;;;21.10;99.90;;;;;;4934555;29;20067;-77
2023/09/13 00:14:23;;;;;;;11.13;6.35;;;21.10;99.90;;;;;;4938564;28;20062;-77
2023/09/13 00:16:50;;;;;;;11.52;6.25;;;21.10;99.90;;;;;;4931546;29;20027;-80
2023/09/13 00:19:16;;;;;;;10.85;6.32;;;21.10;99.90;;;;;;4931463;29;20086;-76
2023/09/13 00:21:42;;;;;;;8.68;6.18;;;21.10;99.90;;;;;;4943973;28;20050;-78
2023/09/13 00:24:09;;;;;;;9.40;6.85;;;21.10;99.90;;;;;;4933438;28;20474;-77
2023/09/13 00:26:35;;;;;;;14.35;7.57;;;21.00;99.90;;;;;;4935325;29;20019;-77
2023/09/13 00:29:01;;;;;;;12.57;7.40;;;21.00;99.90;;;;;;4932765;29;20028;-76
2023/09/13 00:31:26;;;;;;;8.25;6.20;;;21.00;99.90;;;;;;4948922;28;20027;-77
2023/09/13 00:33:52;;;;;;;10.93;6.57;;;20.90;99.90;;;;;;4937892;29;20102;-77
2023/09/13 00:36:17;;;;;;;9.93;6.88;;;20.90;99.90;;;;;;4931224;29;20028;-77
2023/09/13 00:38:43;;;;;;;16.05;8.15;;;20.80;99.90;;;;;;4934610;29;20121;-77
2023/09/13 00:41:09;;;;;;;14.93;7.53;;;20.80;99.90;;;;;;4932216;28;20043;-77
2023/09/13 00:43:34;;;;;;;9.05;6.53;;;20.70;99.90;;;;;;4943212;28;20440;-76
2023/09/13 00:46:01;;;;;;;11.15;7.28;;;20.70;99.90;;;;;;4943653;28;20036;-77
2023/09/13 00:48:28;;;;;;;9.63;6.85;;;20.60;99.90;;;;;;4944168;28;20031;-76
2023/09/13 00:50:56;;;;;;;11.18;7.00;;;20.50;99.90;;;;;;4926163;29;20035;-78
2023/09/13 00:53:22;;;;;;;9.95;6.38;;;20.50;99.90;;;;;;4944183;28;20035;-76
2023/09/13 00:55:53;;;;;;;9.15;6.65;;;20.40;99.90;;;;;;4928325;29;20042;-77
2023/09/13 00:58:19;;;;;;;9.77;6.57;;;20.40;99.90;;;;;;4931586;29;20034;-76
2023/09/13 01:00:46;;;;;;;9.75;6.90;;;20.30;99.90;;;;;;4934052;29;20032;-76
2023/09/13 01:03:15;;;;;;;8.75;7.13;;;20.30;99.90;;;;;;4929444;29;20507;-76
2023/09/13 01:05:41;;;;;;;11.70;7.85;;;20.30;99.90;;;;;;4929955;29;20035;-76
2023/09/13 01:08:07;;;;;;;13.70;8.30;;;20.30;99.90;;;;;;4944100;28;20032;-76
2023/09/13 01:10:33;;;;;;;9.77;6.97;;;20.20;99.90;;;;;;4931073;29;20497;-76
2023/09/13 01:12:58;;;;;;;15.00;7.15;;;20.20;99.90;;;;;;4946893;28;20116;-76
2023/09/13 01:15:28;;;;;;;8.02;6.75;;;20.20;99.90;;;;;;4930714;29;20042;-77
2023/09/13 01:17:59;;;;;;;11.40;7.43;;;20.10;99.90;;;;;;4931170;29;20042;-76
2023/09/13 01:20:43;;;;;;;8.80;6.38;;;20.10;99.90;;;;;;4950758;28;20473;-77
2023/09/13 01:23:36;;;;;;;10.82;7.15;;;20.10;99.90;;;;;;4947725;28;20039;-77
2023/09/13 01:26:27;;;;;;;7.85;6.13;;;20.00;99.90;;;;;;4932059;29;20099;-76
2023/09/13 01:28:54;;;;;;;11.60;7.80;;;20.00;99.90;;;;;;4931424;29;20505;-76
2023/09/13 01:31:21;;;;;;;13.55;6.95;;;20.00;99.90;;;;;;4933063;29;20024;-76
2023/09/13 01:33:47;;;;;;;13.20;6.85;;;20.00;99.90;;;;;;4934566;29;20026;-76
2023/09/13 01:36:14;;;;;;;8.93;6.25;;;20.00;99.90;;;;;;4950823;29;20023;-77
2023/09/13 01:38:40;;;;;;;10.00;6.90;;;20.00;99.90;;;;;;4936916;29;20465;-77
2023/09/13 01:41:21;;;;;;;11.50;7.13;;;20.00;99.90;;;;;;4936153;29;20123;-76
2023/09/13 01:43:50;;;;;;;13.40;7.65;;;20.00;99.90;;;;;;4936389;29;20436;-76
2023/09/13 01:46:16;;;;;;;9.98;7.03;;;20.00;99.90;;;;;;4937162;29;20501;-76
2023/09/13 01:48:42;;;;;;;8.90;6.78;;;19.90;99.90;;;;;;4939824;29;20102;-77
2023/09/13 01:51:08;;;;;;;9.80;7.00;;;19.90;99.90;;;;;;4933121;29;20024;-77
2023/09/13 01:53:43;;;;;;;10.02;7.22;;;19.90;99.90;;;;;;4922659;29;20024;-78
2023/09/13 01:56:08;;;;;;;8.50;6.95;;;19.90;99.90;;;;;;4917920;29;20391;-78
2023/09/13 01:58:34;;;;;;;11.18;7.25;;;19.90;99.90;;;;;;4917981;29;20032;-78
2023/09/13 02:01:00;;;;;;;9.82;7.15;;;19.90;99.90;;;;;;4937544;29;20398;-76
2023/09/13 02:03:25;;;;;;;13.73;7.30;;;19.90;99.90;;;;;;4931744;29;20028;-76
2023/09/13 02:05:51;;;;;;;9.85;7.10;;;19.80;99.90;;;;;;4935312;29;20059;-76
2023/09/13 02:08:16;;;;;;;7.63;6.80;;;19.90;99.90;;;;;;4933321;29;20167;-75
2023/09/13 02:10:42;;;;;;;11.35;7.72;;;19.90;99.90;;;;;;4930643;29;20024;-76
2023/09/13 02:13:07;;;;;;;9.10;6.60;;;19.80;99.90;;;;;;4949728;28;20122;-74
2023/09/13 02:15:39;;;;;;;10.43;7.15;;;19.90;99.90;;;;;;4930566;29;20032;-76
2023/09/13 02:18:05;;;;;;;7.47;6.45;;;19.80;99.90;;;;;;4946530;28;20062;-77
2023/09/13 02:20:31;;;;;;;9.55;6.07;;;19.80;99.90;;;;;;4933119;29;20035;-78
2023/09/13 02:22:56;;;;;;;9.18;6.72;;;19.90;99.90;;;;;;4936368;29;20039;-77
2023/09/13 02:25:22;;;;;;;8.68;5.70;;;19.80;99.90;;;;;;4936204;29;20479;-77
2023/09/13 02:27:48;;;;;;;8.20;5.80;;;19.80;99.90;;;;;;4935042;29;20045;-77
2023/09/13 02:30:13;;;;;;;9.35;6.53;;;19.80;99.90;;;;;;4936376;29;20075;-77
2023/09/13 02:32:39;;;;;;;10.38;6.40;;;19.80;99.90;;;;;;4935884;29;20035;-76
2023/09/13 02:35:05;;;;;;;9.38;6.00;;;19.80;99.90;;;;;;4934678;29;20046;-76
2023/09/13 02:37:30;;;;;;;7.82;6.22;;;19.80;99.90;;;;;;4924121;29;20375;-76
2023/09/13 02:39:58;;;;;;;6.82;6.07;;;19.80;99.90;;;;;;4931530;29;20083;-76
2023/09/13 02:42:24;;;;;;;8.98;5.88;;;19.80;99.90;;;;;;4941825;28;20041;-76
2023/09/13 02:44:49;;;;;;;7.68;6.13;;;19.80;99.90;;;;;;4934618;29;20038;-76
2023/09/13 02:47:15;;;;;;;8.32;5.90;;;19.80;99.90;;;;;;4935212;29;20087;-76
2023/09/13 02:49:40;;;;;;;10.55;6.07;;;19.80;99.90;;;;;;4935961;29;20394;-76
2023/09/13 02:52:06;;;;;;;8.52;6.22;;;19.80;99.90;;;;;;4936634;29;20119;-77
2023/09/13 02:54:32;;;;;;;10.82;6.50;;;19.70;99.90;;;;;;4937076;29;20023;-77
2023/09/13 02:56:58;;;;;;;9.98;5.80;;;19.70;99.90;;;;;;4942198;29;20023;-76
2023/09/13 02:59:23;;;;;;;8.48;6.20;;;19.70;99.90;;;;;;4936986;29;20107;-77
2023/09/13 03:01:50;;;;;;;9.00;6.45;;;19.70;99.90;;;;;;4936908;29;20027;-77
2023/09/13 03:04:16;;;;;;;8.73;5.90;;;19.70;99.90;;;;;;4936521;29;20074;-77
2023/09/13 03:06:42;;;;;;;8.55;5.70;;;19.60;99.90;;;;;;4936784;29;20039;-77
2023/09/13 03:09:07;;;;;;;7.65;5.57;;;19.60;99.90;;;;;;4937861;29;20027;-76
2023/09/13 03:11:38;;;;;;;10.13;6.72;;;19.60;99.90;;;;;;4952488;29;20024;-76
2023/09/13 03:14:07;;;;;;;8.15;6.10;;;19.60;99.90;;;;;;4937302;29;20039;-77
2023/09/13 03:16:32;;;;;;;10.50;6.47;;;19.50;99.90;;;;;;4937386;29;20043;-77
2023/09/13 03:18:58;;;;;;;7.03;5.57;;;19.50;99.90;;;;;;4937727;29;20080;-76
2023/09/13 03:21:24;;;;;;;8.98;6.07;;;19.50;99.90;;;;;;4937605;29;20032;-77
2023/09/13 03:23:50;;;;;;;7.68;5.57;;;19.50;99.90;;;;;;4951793;29;20040;-76
2023/09/13 03:26:19;;;;;;;7.75;5.80;;;19.50;99.90;;;;;;4952157;28;20449;-76
2023/09/13 03:28:48;;;;;;;9.82;6.40;;;19.50;99.90;;;;;;4937151;29;20023;-77
2023/09/13 03:31:16;;;;;;;12.15;6.03;;;19.40;99.90;;;;;;4952011;29;20032;-76
2023/09/13 03:33:43;;;;;;;7.57;6.47;;;19.40;99.90;;;;;;4937712;29;20028;-76
2023/09/13 03:36:10;;;;;;;9.00;6.05;;;19.40;99.90;;;;;;4936176;29;20493;-75
2023/09/13 03:38:38;;;;;;;13.98;6.05;;;19.40;99.90;;;;;;4935419;29;20399;-76
2023/09/13 03:41:14;;;;;;;9.18;6.18;;;19.40;99.90;;;;;;4936378;29;20048;-77
2023/09/13 03:43:40;;;;;;;9.45;6.50;;;19.30;99.90;;;;;;4949875;29;20079;-76
2023/09/13 03:46:06;;;;;;;8.10;6.15;;;19.30;99.90;;;;;;4934885;29;20106;-76
2023/09/13 03:48:32;;;;;;;10.25;6.57;;;19.30;99.90;;;;;;4935620;29;20023;-77
2023/09/13 03:50:58;;;;;;;9.18;5.57;;;19.30;99.90;;;;;;4935997;29;20031;-76
2023/09/13 03:53:24;;;;;;;9.60;5.68;;;19.30;99.90;;;;;;4935470;29;20435;-76
2023/09/13 03:55:50;;;;;;;7.90;5.60;;;19.30;99.90;;;;;;4950725;29;20030;-76
2023/09/13 03:58:16;;;;;;;11.65;5.95;;;19.20;99.90;;;;;;4936526;29;20028;-75
2023/09/13 04:00:42;;;;;;;8.60;6.43;;;19.20;99.90;;;;;;4950577;28;20042;-77
2023/09/13 04:03:08;;;;;;;9.90;6.18;;;19.20;99.90;;;;;;4936085;29;20039;-75
2023/09/13 04:05:34;;;;;;;7.40;5.60;;;19.20;99.90;;;;;;4936229;29;20142;-76
2023/09/13 04:08:00;;;;;;;9.68;5.82;;;19.20;99.90;;;;;;4950347;29;20127;-76
2023/09/13 04:10:25;;;;;;;8.95;5.90;;;19.30;99.90;;;;;;4935549;29;20020;-76
2023/09/13 04:12:51;;;;;;;10.88;7.13;;;19.20;99.90;;;;;;4950208;28;20478;-75
2023/09/13 04:15:17;;;;;;;7.50;5.90;;;19.20;99.90;;;;;;4934757;29;20049;-76
2023/09/13 04:17:43;;;;;;;7.45;6.00;;;19.30;99.90;;;;;;4936075;29;20031;-76
2023/09/13 04:20:10;;;;;;;9.30;5.88;;;19.20;99.90;;;;;;4935442;29;20506;-76
2023/09/13 04:22:35;;;;;;;8.52;7.10;;;19.20;99.90;;;;;;4934554;29;20028;-76
2023/09/13 04:25:02;;;;;;;10.35;5.55;;;19.20;99.90;;;;;;4949232;29;20082;-76
2023/09/13 04:27:27;;;;;;;7.15;5.63;;;19.20;99.90;;;;;;4934652;29;20023;-75
2023/09/13 04:29:54;;;;;;;7.97;5.90;;;19.20;99.90;;;;;;4934692;29;20099;-76
2023/09/13 04:32:21;;;;;;;7.05;5.63;;;19.10;99.90;;;;;;4935612;29;20110;-74
2023/09/13 04:34:46;;;;;;;11.23;6.57;;;19.10;99.90;;;;;;4949068;29;20028;-76
2023/09/13 04:37:12;;;;;;;8.57;6.15;;;19.10;99.90;;;;;;4934680;29;20027;-76
2023/09/13 04:39:38;;;;;;;8.30;6.22;;;19.10;99.90;;;;;;4934362;29;20393;-75
2023/09/13 04:42:05;;;;;;;9.48;5.97;;;19.10;99.90;;;;;;4935294;29;20111;-75
2023/09/13 04:44:30;;;;;;;7.60;6.03;;;19.10;99.90;;;;;;4935397;29;20447;-75
2023/09/13 04:46:57;;;;;;;7.10;6.22;;;19.00;99.90;;;;;;4934620;29;20028;-75
2023/09/13 04:49:23;;;;;;;8.48;5.70;;;19.00;99.90;;;;;;4949323;29;20067;-75
2023/09/13 04:51:48;;;;;;;9.63;6.05;;;19.00;99.90;;;;;;4949090;29;20031;-76
2023/09/13 04:54:14;;;;;;;9.90;6.75;;;19.00;99.90;;;;;;4934533;29;20032;-76
2023/09/13 04:56:39;;;;;;;10.95;6.70;;;19.00;99.90;;;;;;4949605;29;20027;-78
2023/09/13 04:59:05;;;;;;;9.65;6.35;;;19.00;99.90;;;;;;4936598;29;20107;-69
2023/09/13 05:01:31;;;;;;;7.95;6.25;;;18.90;99.90;;;;;;4948228;29;20490;-69
2023/09/13 05:03:57;;;;;;;11.35;6.82;;;19.00;99.90;;;;;;4946682;29;20031;-70
2023/09/13 05:06:23;;;;;;;8.55;6.32;;;19.00;99.90;;;;;;4933565;28;20477;-69
2023/09/13 05:08:50;;;;;;;8.20;6.38;;;19.00;99.90;;;;;;4933960;29;20031;-70
2023/09/13 05:11:16;;;;;;;9.00;6.50;;;19.00;99.90;;;;;;4937392;29;20024;-70
2023/09/13 05:13:42;;;;;;;9.38;6.50;;;19.00;99.90;;;;;;4938822;29;20502;-69
2023/09/13 05:16:07;;;;;;;9.30;6.13;;;19.00;99.90;;;;;;4938848;28;20028;-72
2023/09/13 05:18:33;;;;;;;7.00;5.78;;;19.00;99.90;;;;;;4938873;28;20550;-70
2023/09/13 05:20:59;;;;;;;8.82;6.00;;;19.00;99.90;;;;;;4943613;29;20027;-71
2023/09/13 05:23:25;;;;;;;10.43;6.07;;;19.00;99.90;;;;;;4971473;28;20043;-71
2023/09/13 05:25:52;;;;;;;7.13;5.38;;;19.00;99.90;;;;;;4950047;28;20027;-70
2023/09/13 05:28:18;;;;;;;8.75;6.75;;;19.00;99.90;;;;;;4937702;29;20034;-71
2023/09/13 05:30:48;;;;;;;8.32;6.20;;;19.10;99.90;;;;;;4940830;29;20434;-72
2023/09/13 05:33:14;;;;;;;7.78;5.70;;;19.10;99.90;;;;;;4937473;29;20365;-72
2023/09/13 05:35:39;;;;;;;9.98;6.50;;;19.10;99.90;;;;;;4940344;28;20035;-70
2023/09/13 05:38:05;;;;;;;8.68;5.82;;;19.10;99.90;;;;;;4938766;29;20059;-70
2023/09/13 05:40:31;;;;;;;8.75;5.80;;;19.10;99.90;;;;;;4941183;28;20541;-71
2023/09/13 05:42:57;;;;;;;11.10;6.60;;;19.20;99.90;;;;;;4933110;29;20042;-69
2023/09/13 05:45:23;;;;;;;8.10;6.07;;;19.20;99.90;;;;;;4936542;29;20030;-70
2023/09/13 05:47:50;;;;;;;9.68;6.28;;;19.20;99.90;;;;;;4940413;29;20027;-70
2023/09/13 05:50:16;;;;;;;10.65;6.25;;;19.20;99.90;;;;;;4949101;28;20027;-71
2023/09/13 05:52:41;;;;;;;8.65;6.03;;;19.20;99.90;;;;;;4947294;29;20099;-70
2023/09/13 05:55:08;;;;;;;8.25;6.18;;;19.20;99.90;;;;;;4935712;29;20032;-69
2023/09/13 05:57:33;;;;;;;11.30;6.65;;;19.30;99.90;;;;;;4936627;29;20024;-70
2023/09/13 05:59:59;;;;;;;10.07;6.32;;;19.40;99.90;;;;;;4941705;29;20050;-70
2023/09/13 06:02:25;;;;;;;12.60;6.50;;;19.40;99.90;;;;;;4938438;29;20047;-69
2023/09/13 06:04:50;;;;;;;8.68;5.50;;;19.40;99.90;;;;;;4936778;29;20016;-69
2023/09/13 06:07:16;;;;;;;8.85;5.13;;;19.50;99.90;;;;;;4936407;29;20032;-69
2023/09/13 06:09:42;;;;;;;10.98;6.38;;;19.50;99.90;;;;;;4950649;29;20034;-68
2023/09/13 06:12:07;;;;;;;13.40;6.95;;;19.50;99.90;;;;;;4936260;29;20019;-68
2023/09/13 06:14:33;;;;;;;11.98;7.13;;;19.60;99.90;;;;;;4936498;29;20083;-67
2023/09/13 06:16:59;;;;;;;10.52;7.18;;;19.60;99.90;;;;;;4942673;29;20071;-76
2023/09/13 06:19:24;;;;;;;12.70;7.72;;;19.60;99.90;;;;;;4936890;29;20027;-76
2023/09/13 06:21:51;;;;;;;12.75;7.47;;;19.60;99.90;;;;;;4935797;29;20479;-75
2023/09/13 06:24:16;;;;;;;13.35;7.00;;;19.70;99.90;;;;;;4951605;29;20387;-76
2023/09/13 06:26:42;;;;;;;10.80;6.50;;;19.60;99.90;;;;;;4938711;29;20029;-76
2023/09/13 06:29:09;;;;;;;10.80;7.18;;;19.70;99.90;;;;;;4936708;29;20028;-73
2023/09/13 06:31:35;;;;;;;9.02;7.03;;;19.70;99.90;;;;;;4940872;29;20103;-76
2023/09/13 06:34:01;;;;;;;8.88;6.82;;;19.70;99.90;;;;;;4937019;29;20102;-76
2023/09/13 06:36:27;;;;;;;9.35;6.22;;;19.80;99.90;;;;;;4936637;29;20039;-76
2023/09/13 06:38:53;;;;;;;9.07;6.90;;;19.70;99.90;;;;;;4935303;29;20411;-77
2023/09/13 06:41:18;;;;;;;10.45;6.85;;;19.70;99.90;;;;;;4935969;29;20136;-77
2023/09/13 06:43:44;;;;;;;10.73;6.82;;;19.70;99.90;;;;;;4936341;29;20035;-76
2023/09/13 06:46:10;;;;;;;9.57;6.30;;;19.80;99.90;;;;;;4936242;29;20035;-76
2023/09/13 06:48:36;;;;;;;11.02;6.93;;;19.80;99.90;;;;;;4936843;29;20431;-77
2023/09/13 06:51:03;;;;;;;10.55;6.70;;;19.80;99.90;;;;;;4936735;29;20514;-76
2023/09/13 06:53:29;;;;;;;10.10;7.07;;;19.80;99.90;;;;;;4937004;29;20020;-77
2023/09/13 06:55:54;;;;;;;10.15;6.35;;;19.90;99.90;;;;;;4951344;29;20491;-76
2023/09/13 06:58:20;;;;;;;11.57;7.20;;;19.90;99.90;;;;;;4951398;29;20487;-76
2023/09/13 07:00:45;;;;;;;10.57;5.78;;;20.00;99.90;;;;;;4936732;29;20032;-75
2023/09/13 07:03:11;;;;;;;8.48;6.38;;;20.00;99.90;;;;;;4952533;29;20036;-77
2023/09/13 07:05:37;;;;;;;9.43;7.20;;;20.00;99.90;;;;;;4938356;29;20031;-77
2023/09/13 07:08:03;;;;;;;11.02;6.10;;;20.00;99.90;;;;;;4952399;29;20500;-76
2023/09/13 07:10:30;;;;;;;8.95;6.63;;;20.10;99.90;;;;;;4937632;29;20031;-77
2023/09/13 07:12:57;;;;;;;10.73;6.13;;;20.10;99.90;;;;;;4952539;29;20106;-77
2023/09/13 07:15:23;;;;;;;8.35;6.13;;;20.10;99.90;;;;;;4939542;29;20099;-76
2023/09/13 07:17:48;;;;;;;8.82;6.18;;;20.10;99.90;;;;;;4940140;29;20070;-76
2023/09/13 07:20:14;;;;;;;10.38;6.57;;;20.10;99.90;;;;;;4938628;29;20083;-77
2023/09/13 07:22:39;;;;;;;11.32;6.45;;;20.10;99.90;;;;;;4949262;29;20037;-77
2023/09/13 07:25:06;;;;;;;10.30;6.68;;;20.10;99.90;;;;;;4955994;29;20042;-77
2023/09/13 07:27:32;;;;;;;7.97;5.95;;;20.20;99.90;;;;;;4946298;28;20048;-76
2023/09/13 07:29:58;;;;;;;8.18;5.47;;;20.20;99.90;;;;;;4936804;29;20495;-76
2023/09/13 07:32:23;;;;;;;10.30;6.28;;;20.20;99.90;;;;;;4936436;29;20119;-77
2023/09/13 07:34:49;;;;;;;7.35;6.18;;;20.20;99.90;;;;;;4938322;29;20032;-75
2023/09/13 07:37:15;;;;;;;10.10;6.53;;;20.20;99.90;;;;;;4960331;28;20402;-76
2023/09/13 07:39:42;;;;;;;9.68;6.10;;;20.30;99.90;;;;;;4941421;28;20552;-77
2023/09/13 07:42:08;;;;;;;7.93;6.03;;;20.30;99.90;;;;;;4944567;29;20041;-77
2023/09/13 07:44:33;;;;;;;8.27;5.82;;;20.30;99.90;;;;;;4955013;28;20024;-76
2023/09/13 07:46:59;;;;;;;8.48;6.10;;;20.30;99.90;;;;;;4971052;28;20028;-78
2023/09/13 07:49:27;;;;;;;7.65;6.30;;;20.40;99.90;;;;;;4955994;29;20092;-78
2023/09/13 07:51:53;;;;;;;9.20;5.97;;;20.40;99.90;;;;;;4973402;28;20031;-78
2023/09/13 07:54:19;;;;;;;9.70;6.13;;;20.50;99.90;;;;;;4956386;28;20038;-78
2023/09/13 07:56:44;;;;;;;10.52;7.13;;;20.50;99.90;;;;;;4955966;28;20051;-77
2023/09/13 07:59:14;;;;;;;9.25;6.45;;;20.50;99.90;;;;;;4956583;28;20086;-76
2023/09/13 08:01:40;;;;;;;8.27;6.35;;;20.60;99.90;;;;;;4970363;28;20023;-77
2023/09/13 08:04:06;;;;;;;10.45;6.45;;;20.70;99.90;;;;;;4955346;28;20031;-77
2023/09/13 08:06:31;;;;;;;9.32;6.28;;;20.80;99.90;;;;;;4972453;28;20511;-77
2023/09/13 08:08:58;;;;;;;10.48;6.82;;;20.80;99.90;;;;;;4955075;28;20030;-77
2023/09/13 08:11:23;;;;;;;10.00;5.85;;;20.90;99.90;;;;;;4970228;28;20368;-78
2023/09/13 08:13:49;;;;;;;9.00;6.25;;;20.90;99.90;;;;;;4956967;28;20030;-75
2023/09/13 08:16:15;;;;;;;11.05;6.93;;;20.90;99.90;;;;;;4957122;28;20426;-76
2023/09/13 08:18:41;;;;;;;8.93;6.35;;;21.00;99.90;;;;;;4971974;28;20046;-77
2023/09/13 08:21:07;;;;;;;9.13;5.50;;;21.00;99.90;;;;;;4958719;28;20070;-78
2023/09/13 08:23:32;;;;;;;18.33;6.60;;;21.00;99.90;;;;;;4973792;28;20116;-79
2023/09/13 08:25:58;;;;;;;17.35;7.40;;;21.10;99.90;;;;;;4973839;28;20418;-77
2023/09/13 08:28:24;;;;;;;9.20;5.93;;;21.10;99.90;;;;;;4958317;29;20031;-77
2023/09/13 08:30:51;;;;;;;10.60;6.20;;;21.20;99.90;;;;;;4958022;28;20019;-78
2023/09/13 08:33:16;;;;;;;7.75;6.13;;;21.20;99.90;;;;;;4957522;28;20074;-77
2023/09/13 08:35:42;;;;;;;7.18;5.63;;;21.20;99.90;;;;;;4959892;28;20035;-78
2023/09/13 08:38:08;;;;;;;24.55;7.60;;;21.30;99.90;;;;;;4936235;29;20110;-77
2023/09/13 08:40:40;;;;;;;9.82;5.93;;;21.30;99.90;;;;;;4937920;29;20172;-78
2023/09/13 08:43:09;;;;;;;6.47;5.45;;;21.40;99.90;;;;;;4952246;28;20043;-77
2023/09/13 08:45:35;;;;;;;26.17;8.18;;;21.50;99.90;;;;;;4991390;23;20122;-72
2023/09/13 08:48:02;;;;;;;9.88;5.50;;;21.50;99.90;;;;;;4987904;28;20061;-72
2023/09/13 08:50:29;;;;;;;8.52;4.90;;;21.60;99.90;;;;;;4998479;28;20441;-71
2023/09/13 08:53:01;;;;;;;6.72;4.57;;;21.60;99.90;;;;;;4994634;28;20038;-72
2023/09/13 08:55:27;;;;;;;7.47;4.68;;;21.60;99.90;;;;;;4989543;28;20030;-71
2023/09/13 08:57:55;;;;;;;6.30;4.55;;;21.60;99.90;;;;;;4968785;28;20136;-72
2023/09/13 09:00:21;;;;;;;6.05;4.82;;;21.50;99.90;;;;;;4970092;28;20039;-72
2023/09/13 09:02:49;;;;;;;5.15;4.35;;;21.60;99.90;;;;;;4963762;28;20065;-72
2023/09/13 09:05:16;;;;;;;8.80;5.15;;;21.50;99.90;;;;;;4966275;28;20533;-72
2023/09/13 09:07:43;;;;;;;5.95;4.70;;;21.40;99.90;;;;;;4969147;28;20432;-72
2023/09/13 09:10:12;;;;;;;5.07;4.32;;;21.40;99.90;;;;;;4970051;28;20474;-72
2023/09/13 09:12:48;;;;;;;7.05;4.53;;;21.40;99.90;;;;;;4967171;28;20104;-73
2023/09/13 09:15:16;;;;;;;8.88;4.55;;;21.40;99.90;;;;;;4969349;28;20038;-74
2023/09/13 09:17:44;;;;;;;7.05;4.60;;;21.40;99.90;;;;;;4969122;28;20065;-72
2023/09/13 09:20:10;;;;;;;6.00;4.18;;;21.30;99.90;;;;;;4968788;28;20516;-73
2023/09/13 09:22:38;;;;;;;7.63;4.10;;;21.30;99.90;;;;;;4969600;28;20290;-72
2023/09/13 09:25:09;;;;;;;5.45;3.92;;;21.30;99.90;;;;;;4970734;28;20038;-71
2023/09/13 09:27:37;;;;;;;7.03;3.40;;;21.30;99.90;;;;;;4968183;28;20034;-72
2023/09/13 09:30:03;;;;;;;4.55;3.40;;;21.30;99.90;;;;;;4984206;28;20031;-72
2023/09/13 09:32:30;;;;;;;7.43;3.97;;;21.30;99.90;;;;;;4969619;28;20042;-72
2023/09/13 09:34:58;;;;;;;6.35;3.75;;;21.30;99.90;;;;;;4970012;28;20073;-72
2023/09/13 09:37:32;;;;;;;5.82;3.60;;;21.30;99.90;;;;;;4966283;28;20421;-72
2023/09/13 09:39:58;;;;;;;8.68;3.92;;;21.30;99.90;;;;;;4952728;28;20035;-72
2023/09/13 09:42:25;;;;;;;5.70;3.55;;;21.30;99.90;;;;;;4965306;28;20590;-72
2023/09/13 09:44:52;;;;;;;6.05;4.45;;;21.30;99.90;;;;;;4969708;28;20115;-72
2023/09/13 09:47:18;;;;;;;9.48;4.85;;;21.40;99.90;;;;;;4970798;28;20027;-72
2023/09/13 09:49:49;;;;;;;8.65;5.07;;;21.40;99.90;;;;;;4963238;28;20030;-72
2023/09/13 09:52:15;;;;;;;8.95;5.13;;;21.40;99.90;;;;;;4972237;28;20035;-72
2023/09/13 09:54:50;;;;;;;8.07;5.65;;;21.40;99.90;;;;;;4967627;28;20133;-72
2023/09/13 09:57:23;;;;;;;8.38;5.25;;;21.40;99.90;;;;;;4962267;28;20639;-71
2023/09/13 09:59:49;;;;;;;13.43;6.10;;;21.50;99.90;;;;;;4967953;28;20031;-72
2023/09/13 10:02:15;;;;;;;12.23;4.97;;;21.50;99.90;;;;;;4970802;28;20026;-72
2023/09/13 10:04:49;;;;;;;8.13;4.78;;;21.50;99.90;;;;;;4969590;28;20081;-71
2023/09/13 10:07:14;;;;;;;5.47;2.90;;;21.50;99.90;;;;;;4969542;28;20049;-71
2023/09/13 10:09:44;;;;;;;3.20;2.22;;;21.50;99.90;;;;;;4980587;28;20497;-72
2023/09/13 10:12:11;;;;;;;4.07;1.95;;;21.50;99.90;;;;;;4968358;28;20027;-74
2023/09/13 10:14:39;;;;;;;4.45;2.05;;;21.40;99.90;;;;;;4970328;28;20030;-74
2023/09/13 10:17:06;;;;;;;7.18;2.10;;;21.40;99.90;;;;;;4968886;28;20093;-74
2023/09/13 10:19:33;;;;;;;3.75;2.20;;;21.40;99.90;;;;;;4969866;28;20068;-73
2023/09/13 10:21:59;;;;;;;3.22;2.30;;;21.30;99.90;;;;;;4962671;28;20035;-74
2023/09/13 10:24:29;;;;;;;2.53;2.10;;;21.30;99.90;;;;;;4962981;28;20046;-73
2023/09/13 10:26:56;;;;;;;2.95;2.05;;;21.30;99.90;;;;;;4964719;28;20062;-72
2023/09/13 10:29:34;;;;;;;3.60;2.35;;;21.30;99.90;;;;;;4970130;28;20426;-72
2023/09/13 10:32:07;;;;;;;3.65;1.98;;;21.30;99.90;;;;;;4975170;28;20023;-72
2023/09/13 10:34:54;;;;;;;2.80;2.03;;;21.40;99.90;;;;;;4974850;28;20026;-72
2023/09/13 10:37:25;;;;;;;7.90;2.13;;;21.50;99.90;;;;;;4967694;28;20038;-72
2023/09/13 10:39:57;;;;;;;3.00;1.67;;;21.60;99.90;;;;;;4961472;28;20023;-72
2023/09/13 10:42:23;;;;;;;2.10;1.42;;;21.70;99.90;;;;;;4968542;28;20049;-73
2023/09/13 10:44:50;;;;;;;3.92;1.70;;;21.80;99.90;;;;;;4954081;28;23983;-73
2023/09/13 10:47:15;;;;;;;3.20;2.28;;;21.90;99.90;;;;;;4967550;28;20038;-74
2023/09/13 10:49:42;;;;;;;4.75;2.30;;;22.00;99.90;;;;;;4966628;28;20027;-72
2023/09/13 10:52:08;;;;;;;5.20;2.78;;;22.10;99.90;;;;;;4966652;28;20029;-73
2023/09/13 10:54:36;;;;;;;3.00;2.03;;;22.20;99.90;;;;;;4960392;28;20027;-73
2023/09/13 10:57:03;;;;;;;5.22;2.55;;;22.30;99.90;;;;;;4965779;28;20351;-74
2023/09/13 10:59:30;;;;;;;5.35;2.75;;;22.40;99.90;;;;;;4965916;28;20131;-73
2023/09/13 11:01:55;;;;;;;4.68;3.08;;;22.50;99.90;;;;;;4980476;28;20078;-73
2023/09/13 11:04:26;;;;;;;7.07;3.80;;;22.50;99.90;;;;;;4965286;28;20058;-73
2023/09/13 11:06:54;;;;;;;8.38;3.63;;;22.60;99.90;;;;;;4969622;28;20501;-72
2023/09/13 11:09:30;;;;;;;5.93;3.88;;;22.60;99.90;;;;;;4980443;28;20485;-73
2023/09/13 11:11:59;;;;;;;4.72;3.33;;;22.40;99.90;;;;;;4963853;28;20142;-73
2023/09/13 11:14:30;;;;;;;3.75;2.25;;;22.20;99.90;;;;;;4966274;28;20114;-72
2023/09/13 11:17:02;;;;;;;2.63;2.20;;;22.00;99.90;;;;;;4965358;28;20038;-72
2023/09/13 11:19:28;;;;;;;2.75;2.33;;;21.70;99.90;;;;;;4967307;28;20023;-73
2023/09/13 11:22:06;;;;;;;4.32;2.55;;;21.50;99.90;;;;;;4969146;28;20023;-72
2023/09/13 11:24:40;;;;;;;3.20;2.38;;;21.40;99.90;;;;;;4969951;28;20458;-72
2023/09/13 11:27:16;;;;;;;;;;;21.20;99.90;;;;;;4967495;28;20146;-73
2023/09/13 11:29:46;;;;;;;4.22;2.47;;;21.10;99.90;;;;;;4981830;28;20396;-73
2023/09/13 11:32:17;;;;;;;3.50;2.40;;;20.90;99.90;;;;;;4958347;28;20405;-73
2023/09/13 11:34:43;;;;;;;3.92;3.03;;;20.80;99.90;;;;;;4962924;28;20027;-73
2023/09/13 11:37:12;;;;;;;4.20;3.05;;;20.70;99.90;;;;;;4965005;28;20034;-73
2023/09/13 11:39:39;;;;;;;4.25;2.63;;;20.70;99.90;;;;;;4960650;28;20490;-73
2023/09/13 11:42:09;;;;;;;4.82;2.78;;;20.60;99.90;;;;;;4982531;28;20058;-73
2023/09/13 11:44:37;;;;;;;3.97;2.63;;;20.60;99.90;;;;;;4965744;28;20438;-73
2023/09/13 11:47:03;;;;;;;4.22;3.05;;;20.60;99.90;;;;;;4966586;28;20126;-73
2023/09/13 11:49:29;;;;;;;4.85;2.70;;;20.60;99.90;;;;;;4970358;28;20093;-73
2023/09/13 11:51:57;;;;;;;4.03;2.42;;;20.70;99.90;;;;;;4968941;28;20468;-73
2023/09/13 11:54:25;;;;;;;4.00;2.38;;;20.80;99.90;;;;;;4967119;28;20437;-72
2023/09/13 11:56:55;;;;;;;7.28;3.03;;;20.90;99.90;;;;;;4960329;28;20027;-73
2023/09/13 11:59:31;;;;;;;3.25;2.40;;;21.00;99.90;;;;;;4964854;28;20035;-75
2023/09/13 12:01:57;;;;;;;2.92;2.60;;;21.10;99.90;;;;;;4962605;28;20579;-73
2023/09/13 12:04:26;;;;;;;5.53;3.40;;;21.10;99.90;;;;;;4980495;28;20035;-78
2023/09/13 12:06:56;;;;;;;3.65;2.17;;;21.20;99.90;;;;;;4960970;28;20089;-73
2023/09/13 12:09:23;;;;;;;3.80;2.13;;;21.30;99.90;;;;;;4964241;28;20027;-72
2023/09/13 12:11:53;;;;;;;5.10;2.70;;;21.30;99.90;;;;;;4965914;28;20023;-72
2023/09/13 12:14:21;;;;;;;3.15;2.50;;;21.40;99.90;;;;;;4983006;28;20038;-72
2023/09/13 12:16:50;;;;;;;5.75;3.20;;;21.50;99.90;;;;;;4980453;28;20130;-72
2023/09/13 12:19:16;;;;;;;3.88;3.00;;;21.60;99.90;;;;;;4965894;28;20101;-72
2023/09/13 12:21:46;;;;;;;4.43;3.30;;;21.60;99.90;;;;;;4968665;28;20027;-72
2023/09/13 12:24:18;;;;;;;4.93;2.85;;;21.60;99.90;;;;;;4964738;28;20038;-72
2023/09/13 12:26:44;;;;;;;3.97;3.05;;;21.70;99.90;;;;;;4967269;28;20141;-72
2023/09/13 12:29:10;;;;;;;4.60;2.42;;;21.80;99.90;;;;;;4967496;28;20145;-72
2023/09/13 12:31:36;;;;;;;3.28;2.47;;;21.80;99.90;;;;;;4966057;28;20109;-72
2023/09/13 12:34:03;;;;;;;2.92;2.28;;;21.80;99.90;;;;;;4982434;28;20106;-72
2023/09/13 12:36:29;;;;;;;3.22;1.98;;;21.80;99.90;;;;;;4966258;28;20401;-73
2023/09/13 12:38:58;;;;;;;4.60;2.20;;;21.80;99.90;;;;;;4966680;28;20037;-73
2023/09/13 12:41:29;;;;;;;3.15;2.38;;;21.90;99.90;;;;;;4964421;28;20049;-73
2023/09/13 12:43:58;;;;;;;5.57;2.88;;;22.00;99.90;;;;;;4965990;28;20124;-73
2023/09/13 12:46:27;;;;;;;4.40;2.90;;;22.00;99.90;;;;;;4971386;28;20027;-78